sensor_id;sensor_type;location;lat;lon;timestamp;temperature;humidity
68354;DHT22;55274;43.060;25.618;2023-07-20T00:01:59;24.90;82.30
68354;DHT22;55274;43.060;25.618;2023-07-20T00:04:25;24.90;84.50
68354;DHT22;55274;43.060;25.618;2023-07-20T00:06:51;24.80;84.00
68354;DHT22;55274;43.060;25.618;2023-07-20T00:09:17;24.90;84.50
68354;DHT22;55274;43.060;25.618;2023-07-20T00:11:49;24.70;83.10
68354;DHT22;55274;43.060;25.618;2023-07-20T00:14:19;24.80;82.50
68354;DHT22;55274;43.060;25.618;2023-07-20T00:16:46;24.80;81.90
68354;DHT22;55274;43.060;25.618;2023-07-20T00:19:13;24.60;83.60
68354;DHT22;55274;43.060;25.618;2023-07-20T00:21:38;24.50;84.20
68354;DHT22;55274;43.060;25.618;2023-07-20T00:24:08;24.40;85.60
68354;DHT22;55274;43.060;25.618;2023-07-20T00:26:34;24.30;87.80
68354;DHT22;55274;43.060;25.618;2023-07-20T00:29:00;24.20;86.30
68354;DHT22;55274;43.060;25.618;2023-07-20T00:31:25;24.10;87.20
68354;DHT22;55274;43.060;25.618;2023-07-20T00:33:52;24.10;87.10
68354;DHT22;55274;43.060;25.618;2023-07-20T00:36:18;24.00;87.20
68354;DHT22;55274;43.060;25.618;2023-07-20T00:38:43;23.90;87.00
68354;DHT22;55274;43.060;25.618;2023-07-20T00:41:09;23.80;87.30
68354;DHT22;55274;43.060;25.618;2023-07-20T00:43:35;23.80;87.90
68354;DHT22;55274;43.060;25.618;2023-07-20T00:46:01;23.70;88.00
68354;DHT22;55274;43.060;25.618;2023-07-20T00:48:29;23.60;89.00
68354;DHT22;55274;43.060;25.618;2023-07-20T00:50:55;23.50;89.40
68354;DHT22;55274;43.060;25.618;2023-07-20T00:53:21;23.50;89.80
68354;DHT22;55274;43.060;25.618;2023-07-20T00:55:47;23.40;89.90
68354;DHT22;55274;43.060;25.618;2023-07-20T00:58:14;23.50;90.20
68354;DHT22;55274;43.060;25.618;2023-07-20T01:00:40;23.50;91.40
68354;DHT22;55274;43.060;25.618;2023-07-20T01:03:05;23.50;92.80
68354;DHT22;55274;43.060;25.618;2023-07-20T01:05:57;23.50;92.80
68354;DHT22;55274;43.060;25.618;2023-07-20T01:08:33;23.50;95.40
68354;DHT22;55274;43.060;25.618;2023-07-20T01:11:05;23.30;95.10
68354;DHT22;55274;43.060;25.618;2023-07-20T01:13:33;23.20;95.70
68354;DHT22;55274;43.060;25.618;2023-07-20T01:16:02;23.10;95.00
68354;DHT22;55274;43.060;25.618;2023-07-20T01:18:28;22.70;93.60
68354;DHT22;55274;43.060;25.618;2023-07-20T01:20:59;22.40;95.20
68354;DHT22;55274;43.060;25.618;2023-07-20T01:31:54;22.40;97.20
68354;DHT22;55274;43.060;25.618;2023-07-20T01:34:22;22.40;95.40
68354;DHT22;55274;43.060;25.618;2023-07-20T01:36:55;22.50;95.50
68354;DHT22;55274;43.060;25.618;2023-07-20T01:39:23;22.50;97.20
68354;DHT22;55274;43.060;25.618;2023-07-20T01:41:50;22.40;97.00
68354;DHT22;55274;43.060;25.618;2023-07-20T01:44:18;22.50;98.40
68354;DHT22;55274;43.060;25.618;2023-07-20T01:46:45;22.50;99.10
68354;DHT22;55274;43.060;25.618;2023-07-20T01:49:12;22.40;98.10
68354;DHT22;55274;43.060;25.618;2023-07-20T01:51:41;22.30;98.60
68354;DHT22;55274;43.060;25.618;2023-07-20T01:54:09;22.30;99.90
68354;DHT22;55274;43.060;25.618;2023-07-20T01:56:40;22.40;99.90
68354;DHT22;55274;43.060;25.618;2023-07-20T01:59:06;22.30;99.90
68354;DHT22;55274;43.060;25.618;2023-07-20T02:01:32;22.30;99.90
68354;DHT22;55274;43.060;25.618;2023-07-20T02:03:59;22.30;99.90
68354;DHT22;55274;43.060;25.618;2023-07-20T02:06:25;22.30;99.70
68354;DHT22;55274;43.060;25.618;2023-07-20T02:08:54;22.10;99.90
68354;DHT22;55274;43.060;25.618;2023-07-20T02:11:20;22.10;99.90
68354;DHT22;55274;43.060;25.618;2023-07-20T02:13:46;22.00;99.90
68354;DHT22;55274;43.060;25.618;2023-07-20T02:16:12;22.00;99.90
68354;DHT22;55274;43.060;25.618;2023-07-20T02:18:38;22.00;99.90
68354;DHT22;55274;43.060;25.618;2023-07-20T02:21:04;22.00;99.90
68354;DHT22;55274;43.060;25.618;2023-07-20T02:23:30;22.00;99.90
68354;DHT22;55274;43.060;25.618;2023-07-20T02:25:56;21.90;99.90
68354;DHT22;55274;43.060;25.618;2023-07-20T02:28:26;21.90;99.90
68354;DHT22;55274;43.060;25.618;2023-07-20T02:30:53;21.90;99.90
68354;DHT22;55274;43.060;25.618;2023-07-20T02:33:19;21.80;99.90
68354;DHT22;55274;43.060;25.618;2023-07-20T02:35:46;21.40;99.90
68354;DHT22;55274;43.060;25.618;2023-07-20T02:38:14;21.80;99.90
68354;DHT22;55274;43.060;25.618;2023-07-20T02:40:43;21.80;99.90
68354;DHT22;55274;43.060;25.618;2023-07-20T02:43:09;21.70;99.90
68354;DHT22;55274;43.060;25.618;2023-07-20T02:45:39;21.70;99.90
68354;DHT22;55274;43.060;25.618;2023-07-20T02:48:05;21.70;99.90
68354;DHT22;55274;43.060;25.618;2023-07-20T02:50:39;21.70;99.90
68354;DHT22;55274;43.060;25.618;2023-07-20T02:53:06;21.70;99.90
68354;DHT22;55274;43.060;25.618;2023-07-20T02:55:33;21.70;99.90
68354;DHT22;55274;43.060;25.618;2023-07-20T02:57:59;21.70;99.90
68354;DHT22;55274;43.060;25.618;2023-07-20T03:00:28;21.70;99.90
68354;DHT22;55274;43.060;25.618;2023-07-20T03:02:58;21.70;99.90
68354;DHT22;55274;43.060;25.618;2023-07-20T03:05:24;21.70;99.90
68354;DHT22;55274;43.060;25.618;2023-07-20T03:07:51;21.60;99.90
68354;DHT22;55274;43.060;25.618;2023-07-20T03:10:17;21.70;99.90
68354;DHT22;55274;43.060;25.618;2023-07-20T03:12:43;21.60;99.90
68354;DHT22;55274;43.060;25.618;2023-07-20T03:15:09;21.60;99.90
68354;DHT22;55274;43.060;25.618;2023-07-20T03:17:35;21.70;99.90
68354;DHT22;55274;43.060;25.618;2023-07-20T03:20:01;21.70;99.90
68354;DHT22;55274;43.060;25.618;2023-07-20T03:22:28;21.70;99.90
68354;DHT22;55274;43.060;25.618;2023-07-20T03:24:54;21.70;99.90
68354;DHT22;55274;43.060;25.618;2023-07-20T03:27:20;21.80;99.90
68354;DHT22;55274;43.060;25.618;2023-07-20T03:29:51;21.80;99.90
68354;DHT22;55274;43.060;25.618;2023-07-20T03:32:17;21.90;99.90
68354;DHT22;55274;43.060;25.618;2023-07-20T03:34:44;21.90;99.90
68354;DHT22;55274;43.060;25.618;2023-07-20T03:37:11;21.90;99.90
68354;DHT22;55274;43.060;25.618;2023-07-20T03:39:37;21.90;99.90
68354;DHT22;55274;43.060;25.618;2023-07-20T03:42:04;22.00;99.90
68354;DHT22;55274;43.060;25.618;2023-07-20T03:44:37;21.90;99.90
68354;DHT22;55274;43.060;25.618;2023-07-20T03:47:06;22.00;99.90
68354;DHT22;55274;43.060;25.618;2023-07-20T03:49:32;22.00;99.90
68354;DHT22;55274;43.060;25.618;2023-07-20T03:51:58;22.00;99.90
68354;DHT22;55274;43.060;25.618;2023-07-20T03:54:25;22.00;99.90
68354;DHT22;55274;43.060;25.618;2023-07-20T03:56:51;22.10;99.90
68354;DHT22;55274;43.060;25.618;2023-07-20T03:59:17;22.20;99.90
68354;DHT22;55274;43.060;25.618;2023-07-20T04:01:43;22.20;99.90
68354;DHT22;55274;43.060;25.618;2023-07-20T04:04:09;22.20;99.90
68354;DHT22;55274;43.060;25.618;2023-07-20T04:06:35;22.30;99.90
68354;DHT22;55274;43.060;25.618;2023-07-20T04:09:01;22.40;99.90
68354;DHT22;55274;43.060;25.618;2023-07-20T04:11:27;22.50;99.90
68354;DHT22;55274;43.060;25.618;2023-07-20T04:13:53;22.40;99.90
68354;DHT22;55274;43.060;25.618;2023-07-20T04:16:19;22.60;99.90
68354;DHT22;55274;43.060;25.618;2023-07-20T04:18:48;23.10;99.90
68354;DHT22;55274;43.060;25.618;2023-07-20T04:21:17;23.80;99.90
68354;DHT22;55274;43.060;25.618;2023-07-20T04:23:46;24.30;99.60
68354;DHT22;55274;43.060;25.618;2023-07-20T04:26:12;24.80;98.30
68354;DHT22;55274;43.060;25.618;2023-07-20T04:28:38;25.20;95.00
68354;DHT22;55274;43.060;25.618;2023-07-20T04:31:12;25.70;90.70
68354;DHT22;55274;43.060;25.618;2023-07-20T04:33:41;26.00;89.40
68354;DHT22;55274;43.060;25.618;2023-07-20T04:36:07;25.90;86.70
68354;DHT22;55274;43.060;25.618;2023-07-20T04:38:34;26.00;87.00
68354;DHT22;55274;43.060;25.618;2023-07-20T04:41:00;26.40;84.90
68354;DHT22;55274;43.060;25.618;2023-07-20T04:43:29;26.10;83.30
68354;DHT22;55274;43.060;25.618;2023-07-20T04:45:55;26.90;82.80
68354;DHT22;55274;43.060;25.618;2023-07-20T04:48:21;27.30;85.10
68354;DHT22;55274;43.060;25.618;2023-07-20T04:50:48;27.30;83.30
68354;DHT22;55274;43.060;25.618;2023-07-20T04:53:14;27.50;85.10
68354;DHT22;55274;43.060;25.618;2023-07-20T04:55:46;27.70;82.90
68354;DHT22;55274;43.060;25.618;2023-07-20T04:58:16;28.20;78.20
68354;DHT22;55274;43.060;25.618;2023-07-20T05:00:42;28.10;77.50
68354;DHT22;55274;43.060;25.618;2023-07-20T05:03:08;28.10;77.50
68354;DHT22;55274;43.060;25.618;2023-07-20T05:05:34;28.20;78.50
68354;DHT22;55274;43.060;25.618;2023-07-20T05:08:03;28.40;77.30
68354;DHT22;55274;43.060;25.618;2023-07-20T05:10:30;28.20;75.80
68354;DHT22;55274;43.060;25.618;2023-07-20T05:12:55;28.20;78.70
68354;DHT22;55274;43.060;25.618;2023-07-20T05:15:21;28.20;78.40
68354;DHT22;55274;43.060;25.618;2023-07-20T05:17:47;28.50;76.30
68354;DHT22;55274;43.060;25.618;2023-07-20T05:20:14;28.70;74.50
68354;DHT22;55274;43.060;25.618;2023-07-20T05:22:40;29.10;74.10
68354;DHT22;55274;43.060;25.618;2023-07-20T05:25:07;29.20;74.10
68354;DHT22;55274;43.060;25.618;2023-07-20T05:27:37;29.40;73.20
68354;DHT22;55274;43.060;25.618;2023-07-20T05:30:04;29.70;71.80
68354;DHT22;55274;43.060;25.618;2023-07-20T05:32:30;29.50;70.40
68354;DHT22;55274;43.060;25.618;2023-07-20T05:34:55;29.40;71.30
68354;DHT22;55274;43.060;25.618;2023-07-20T05:37:21;29.50;70.70
68354;DHT22;55274;43.060;25.618;2023-07-20T05:39:47;29.20;71.30
68354;DHT22;55274;43.060;25.618;2023-07-20T05:42:13;29.10;72.50
68354;DHT22;55274;43.060;25.618;2023-07-20T05:44:40;29.30;71.90
68354;DHT22;55274;43.060;25.618;2023-07-20T05:47:06;29.40;71.60
68354;DHT22;55274;43.060;25.618;2023-07-20T05:49:32;29.60;69.90
68354;DHT22;55274;43.060;25.618;2023-07-20T05:51:58;30.00;70.90
68354;DHT22;55274;43.060;25.618;2023-07-20T05:54:24;30.50;69.50
68354;DHT22;55274;43.060;25.618;2023-07-20T05:56:51;30.50;69.50
68354;DHT22;55274;43.060;25.618;2023-07-20T05:59:17;30.70;67.80
68354;DHT22;55274;43.060;25.618;2023-07-20T06:01:43;30.70;66.50
68354;DHT22;55274;43.060;25.618;2023-07-20T06:04:09;30.70;66.80
68354;DHT22;55274;43.060;25.618;2023-07-20T06:06:35;30.70;66.40
68354;DHT22;55274;43.060;25.618;2023-07-20T06:09:01;30.80;66.50
68354;DHT22;55274;43.060;25.618;2023-07-20T06:11:31;30.90;67.00
68354;DHT22;55274;43.060;25.618;2023-07-20T06:13:57;31.40;65.70
68354;DHT22;55274;43.060;25.618;2023-07-20T06:16:23;31.70;65.50
68354;DHT22;55274;43.060;25.618;2023-07-20T06:18:48;31.90;63.90
68354;DHT22;55274;43.060;25.618;2023-07-20T06:21:14;31.90;62.70
68354;DHT22;55274;43.060;25.618;2023-07-20T06:23:40;32.00;62.60
68354;DHT22;55274;43.060;25.618;2023-07-20T06:26:07;32.10;61.10
68354;DHT22;55274;43.060;25.618;2023-07-20T06:28:33;32.00;61.10
68354;DHT22;55274;43.060;25.618;2023-07-20T06:31:00;31.90;60.70
68354;DHT22;55274;43.060;25.618;2023-07-20T06:33:26;31.80;60.00
68354;DHT22;55274;43.060;25.618;2023-07-20T06:35:52;31.80;59.90
68354;DHT22;55274;43.060;25.618;2023-07-20T06:38:18;31.90;61.40
68354;DHT22;55274;43.060;25.618;2023-07-20T06:40:47;31.90;61.30
68354;DHT22;55274;43.060;25.618;2023-07-20T06:43:13;32.00;61.80
68354;DHT22;55274;43.060;25.618;2023-07-20T06:45:39;32.00;61.80
68354;DHT22;55274;43.060;25.618;2023-07-20T06:48:05;32.50;62.30
68354;DHT22;55274;43.060;25.618;2023-07-20T06:50:30;32.70;58.80
68354;DHT22;55274;43.060;25.618;2023-07-20T06:52:56;32.90;59.30
68354;DHT22;55274;43.060;25.618;2023-07-20T06:55:22;33.00;58.10
68354;DHT22;55274;43.060;25.618;2023-07-20T06:57:48;33.00;58.20
68354;DHT22;55274;43.060;25.618;2023-07-20T07:00:14;33.30;58.40
68354;DHT22;55274;43.060;25.618;2023-07-20T07:02:40;33.50;56.60
68354;DHT22;55274;43.060;25.618;2023-07-20T07:05:06;33.40;57.70
68354;DHT22;55274;43.060;25.618;2023-07-20T07:07:32;33.70;56.90
68354;DHT22;55274;43.060;25.618;2023-07-20T07:09:57;33.80;56.80
68354;DHT22;55274;43.060;25.618;2023-07-20T07:12:23;33.90;55.30
68354;DHT22;55274;43.060;25.618;2023-07-20T07:14:49;33.70;54.80
68354;DHT22;55274;43.060;25.618;2023-07-20T07:17:15;33.70;54.40
68354;DHT22;55274;43.060;25.618;2023-07-20T07:19:41;33.90;54.40
68354;DHT22;55274;43.060;25.618;2023-07-20T07:22:07;34.20;55.50
68354;DHT22;55274;43.060;25.618;2023-07-20T07:24:33;34.20;53.60
68354;DHT22;55274;43.060;25.618;2023-07-20T07:27:03;34.00;55.40
68354;DHT22;55274;43.060;25.618;2023-07-20T07:29:29;34.30;54.30
68354;DHT22;55274;43.060;25.618;2023-07-20T07:31:55;34.30;52.70
68354;DHT22;55274;43.060;25.618;2023-07-20T07:34:21;34.30;52.30
68354;DHT22;55274;43.060;25.618;2023-07-20T07:36:46;34.40;52.30
68354;DHT22;55274;43.060;25.618;2023-07-20T07:39:12;34.60;50.60
68354;DHT22;55274;43.060;25.618;2023-07-20T07:41:39;34.70;51.60
68354;DHT22;55274;43.060;25.618;2023-07-20T07:44:05;34.80;50.30
68354;DHT22;55274;43.060;25.618;2023-07-20T07:46:30;34.90;50.50
68354;DHT22;55274;43.060;25.618;2023-07-20T07:48:56;35.10;51.70
68354;DHT22;55274;43.060;25.618;2023-07-20T07:51:22;35.30;49.40
68354;DHT22;55274;43.060;25.618;2023-07-20T07:53:48;35.30;50.40
68354;DHT22;55274;43.060;25.618;2023-07-20T07:56:14;35.50;48.70
68354;DHT22;55274;43.060;25.618;2023-07-20T07:58:40;35.40;48.50
68354;DHT22;55274;43.060;25.618;2023-07-20T08:01:06;35.50;49.80
68354;DHT22;55274;43.060;25.618;2023-07-20T08:03:32;35.40;48.70
68354;DHT22;55274;43.060;25.618;2023-07-20T08:05:57;35.30;48.80
68354;DHT22;55274;43.060;25.618;2023-07-20T08:08:25;35.10;48.70
68354;DHT22;55274;43.060;25.618;2023-07-20T08:10:54;35.20;50.00
68354;DHT22;55274;43.060;25.618;2023-07-20T08:13:23;35.50;49.00
68354;DHT22;55274;43.060;25.618;2023-07-20T08:15:50;35.70;47.80
68354;DHT22;55274;43.060;25.618;2023-07-20T08:18:17;35.90;47.40
68354;DHT22;55274;43.060;25.618;2023-07-20T08:20:46;35.70;48.50
68354;DHT22;55274;43.060;25.618;2023-07-20T08:23:13;36.00;47.40
68354;DHT22;55274;43.060;25.618;2023-07-20T08:25:39;36.00;48.10
68354;DHT22;55274;43.060;25.618;2023-07-20T08:28:10;36.20;47.30
68354;DHT22;55274;43.060;25.618;2023-07-20T08:30:44;36.20;47.20
68354;DHT22;55274;43.060;25.618;2023-07-20T08:33:12;36.00;47.10
68354;DHT22;55274;43.060;25.618;2023-07-20T08:35:38;36.10;47.80
68354;DHT22;55274;43.060;25.618;2023-07-20T08:38:04;36.30;47.70
68354;DHT22;55274;43.060;25.618;2023-07-20T08:40:32;36.60;46.20
68354;DHT22;55274;43.060;25.618;2023-07-20T08:42:59;36.70;45.30
68354;DHT22;55274;43.060;25.618;2023-07-20T08:45:27;36.60;45.30
68354;DHT22;55274;43.060;25.618;2023-07-20T08:47:58;36.80;46.30
68354;DHT22;55274;43.060;25.618;2023-07-20T08:50:30;36.60;45.90
68354;DHT22;55274;43.060;25.618;2023-07-20T08:52:58;36.60;45.30
68354;DHT22;55274;43.060;25.618;2023-07-20T08:55:26;37.00;45.30
68354;DHT22;55274;43.060;25.618;2023-07-20T08:57:57;36.90;45.00
68354;DHT22;55274;43.060;25.618;2023-07-20T09:00:24;36.80;44.90
68354;DHT22;55274;43.060;25.618;2023-07-20T09:02:51;36.90;45.30
68354;DHT22;55274;43.060;25.618;2023-07-20T09:05:18;37.10;44.70
68354;DHT22;55274;43.060;25.618;2023-07-20T09:07:44;36.90;45.60
68354;DHT22;55274;43.060;25.618;2023-07-20T09:10:10;36.90;45.60
68354;DHT22;55274;43.060;25.618;2023-07-20T09:12:41;37.30;45.50
68354;DHT22;55274;43.060;25.618;2023-07-20T09:15:08;37.60;45.80
68354;DHT22;55274;43.060;25.618;2023-07-20T09:17:34;37.90;44.20
68354;DHT22;55274;43.060;25.618;2023-07-20T09:20:08;38.10;44.10
68354;DHT22;55274;43.060;25.618;2023-07-20T09:22:37;37.90;44.40
68354;DHT22;55274;43.060;25.618;2023-07-20T09:25:14;37.50;45.20
68354;DHT22;55274;43.060;25.618;2023-07-20T09:27:45;37.30;45.80
68354;DHT22;55274;43.060;25.618;2023-07-20T09:30:13;37.60;44.20
68354;DHT22;55274;43.060;25.618;2023-07-20T09:32:48;37.60;43.50
68354;DHT22;55274;43.060;25.618;2023-07-20T09:35:14;37.90;43.10
68354;DHT22;55274;43.060;25.618;2023-07-20T09:37:46;37.80;43.00
68354;DHT22;55274;43.060;25.618;2023-07-20T09:40:15;37.80;43.30
68354;DHT22;55274;43.060;25.618;2023-07-20T09:42:42;37.80;43.70
68354;DHT22;55274;43.060;25.618;2023-07-20T09:45:09;38.00;43.40
68354;DHT22;55274;43.060;25.618;2023-07-20T09:47:36;37.80;44.20
68354;DHT22;55274;43.060;25.618;2023-07-20T09:50:04;38.00;44.20
68354;DHT22;55274;43.060;25.618;2023-07-20T09:52:31;38.50;43.40
68354;DHT22;55274;43.060;25.618;2023-07-20T09:54:57;38.40;42.90
68354;DHT22;55274;43.060;25.618;2023-07-20T09:57:25;38.80;42.50
68354;DHT22;55274;43.060;25.618;2023-07-20T09:59:51;38.70;41.90
68354;DHT22;55274;43.060;25.618;2023-07-20T10:02:23;38.10;45.70
68354;DHT22;55274;43.060;25.618;2023-07-20T10:04:53;38.00;44.40
68354;DHT22;55274;43.060;25.618;2023-07-20T10:07:22;37.80;44.50
68354;DHT22;55274;43.060;25.618;2023-07-20T10:09:51;37.70;44.50
68354;DHT22;55274;43.060;25.618;2023-07-20T10:12:19;37.60;44.80
68354;DHT22;55274;43.060;25.618;2023-07-20T10:14:55;38.00;44.30
68354;DHT22;55274;43.060;25.618;2023-07-20T10:17:24;38.10;44.00
68354;DHT22;55274;43.060;25.618;2023-07-20T10:19:54;38.20;43.30
68354;DHT22;55274;43.060;25.618;2023-07-20T10:22:26;38.40;43.70
68354;DHT22;55274;43.060;25.618;2023-07-20T10:24:53;38.60;43.00
68354;DHT22;55274;43.060;25.618;2023-07-20T10:27:22;38.80;42.80
68354;DHT22;55274;43.060;25.618;2023-07-20T10:29:51;39.00;43.00
68354;DHT22;55274;43.060;25.618;2023-07-20T10:32:19;39.00;42.60
68354;DHT22;55274;43.060;25.618;2023-07-20T10:34:53;38.80;41.00
68354;DHT22;55274;43.060;25.618;2023-07-20T10:37:51;38.90;41.00
68354;DHT22;55274;43.060;25.618;2023-07-20T10:42:50;38.50;41.20
68354;DHT22;55274;43.060;25.618;2023-07-20T10:45:17;38.70;41.10
68354;DHT22;55274;43.060;25.618;2023-07-20T10:47:46;38.80;41.50
68354;DHT22;55274;43.060;25.618;2023-07-20T10:50:12;38.80;41.70
68354;DHT22;55274;43.060;25.618;2023-07-20T10:52:40;39.00;41.50
68354;DHT22;55274;43.060;25.618;2023-07-20T10:55:16;39.00;41.80
68354;DHT22;55274;43.060;25.618;2023-07-20T10:57:42;39.00;42.10
68354;DHT22;55274;43.060;25.618;2023-07-20T11:00:13;39.00;41.80
68354;DHT22;55274;43.060;25.618;2023-07-20T11:02:47;39.00;41.70
68354;DHT22;55274;43.060;25.618;2023-07-20T11:05:37;39.00;41.60
68354;DHT22;55274;43.060;25.618;2023-07-20T11:08:11;39.20;41.00
68354;DHT22;55274;43.060;25.618;2023-07-20T11:10:37;39.00;41.60
68354;DHT22;55274;43.060;25.618;2023-07-20T11:13:22;38.80;41.10
68354;DHT22;55274;43.060;25.618;2023-07-20T11:16:01;38.80;41.00
68354;DHT22;55274;43.060;25.618;2023-07-20T11:18:27;38.80;41.50
68354;DHT22;55274;43.060;25.618;2023-07-20T11:20:53;39.00;41.70
68354;DHT22;55274;43.060;25.618;2023-07-20T11:23:22;39.00;41.30
68354;DHT22;55274;43.060;25.618;2023-07-20T11:25:49;39.10;41.50
68354;DHT22;55274;43.060;25.618;2023-07-20T11:28:15;38.90;41.00
68354;DHT22;55274;43.060;25.618;2023-07-20T11:30:41;38.90;41.10
68354;DHT22;55274;43.060;25.618;2023-07-20T11:33:10;38.80;41.60
68354;DHT22;55274;43.060;25.618;2023-07-20T11:35:42;38.60;42.50
68354;DHT22;55274;43.060;25.618;2023-07-20T11:38:08;38.70;41.40
68354;DHT22;55274;43.060;25.618;2023-07-20T11:40:34;38.80;41.10
68354;DHT22;55274;43.060;25.618;2023-07-20T11:43:00;38.20;42.30
68354;DHT22;55274;43.060;25.618;2023-07-20T11:45:26;38.30;42.50
68354;DHT22;55274;43.060;25.618;2023-07-20T11:47:53;38.40;42.30
68354;DHT22;55274;43.060;25.618;2023-07-20T11:50:18;38.50;41.70
68354;DHT22;55274;43.060;25.618;2023-07-20T11:52:44;38.50;42.20
68354;DHT22;55274;43.060;25.618;2023-07-20T11:55:11;38.80;41.90
68354;DHT22;55274;43.060;25.618;2023-07-20T11:57:37;38.70;41.20
68354;DHT22;55274;43.060;25.618;2023-07-20T12:00:04;38.80;39.90
68354;DHT22;55274;43.060;25.618;2023-07-20T12:02:35;38.70;40.70
68354;DHT22;55274;43.060;25.618;2023-07-20T12:05:02;38.60;40.00
68354;DHT22;55274;43.060;25.618;2023-07-20T12:07:29;38.40;40.80
68354;DHT22;55274;43.060;25.618;2023-07-20T12:10:11;38.40;40.70
68354;DHT22;55274;43.060;25.618;2023-07-20T12:12:44;38.20;40.70
68354;DHT22;55274;43.060;25.618;2023-07-20T12:15:16;37.90;40.10
68354;DHT22;55274;43.060;25.618;2023-07-20T12:17:46;37.70;40.90
68354;DHT22;55274;43.060;25.618;2023-07-20T12:20:32;37.80;41.00
68354;DHT22;55274;43.060;25.618;2023-07-20T12:23:00;38.00;41.00
68354;DHT22;55274;43.060;25.618;2023-07-20T12:28:10;37.80;39.90
68354;DHT22;55274;43.060;25.618;2023-07-20T12:30:38;37.60;40.00
68354;DHT22;55274;43.060;25.618;2023-07-20T12:33:04;37.20;40.90
68354;DHT22;55274;43.060;25.618;2023-07-20T12:35:31;37.00;41.40
68354;DHT22;55274;43.060;25.618;2023-07-20T12:37:57;36.60;41.10
68354;DHT22;55274;43.060;25.618;2023-07-20T12:40:26;36.60;42.00
68354;DHT22;55274;43.060;25.618;2023-07-20T12:42:51;36.70;42.90
68354;DHT22;55274;43.060;25.618;2023-07-20T12:45:17;37.00;42.70
68354;DHT22;55274;43.060;25.618;2023-07-20T12:47:43;37.10;40.90
68354;DHT22;55274;43.060;25.618;2023-07-20T12:50:10;37.00;41.00
68354;DHT22;55274;43.060;25.618;2023-07-20T12:52:37;36.70;40.90
68354;DHT22;55274;43.060;25.618;2023-07-20T12:55:07;36.50;42.20
68354;DHT22;55274;43.060;25.618;2023-07-20T12:57:37;36.20;43.20
68354;DHT22;55274;43.060;25.618;2023-07-20T13:00:03;36.10;43.40
68354;DHT22;55274;43.060;25.618;2023-07-20T13:02:31;36.00;44.10
68354;DHT22;55274;43.060;25.618;2023-07-20T13:04:57;35.90;44.00
68354;DHT22;55274;43.060;25.618;2023-07-20T13:07:34;35.90;44.10
68354;DHT22;55274;43.060;25.618;2023-07-20T13:10:01;35.90;43.40
68354;DHT22;55274;43.060;25.618;2023-07-20T13:12:30;35.90;42.80
68354;DHT22;55274;43.060;25.618;2023-07-20T13:14:56;36.00;43.70
68354;DHT22;55274;43.060;25.618;2023-07-20T13:17:25;36.10;43.10
68354;DHT22;55274;43.060;25.618;2023-07-20T13:19:50;36.40;41.70
68354;DHT22;55274;43.060;25.618;2023-07-20T13:22:16;36.10;41.70
68354;DHT22;55274;43.060;25.618;2023-07-20T13:24:44;36.10;42.30
68354;DHT22;55274;43.060;25.618;2023-07-20T13:27:11;36.20;42.80
68354;DHT22;55274;43.060;25.618;2023-07-20T13:29:37;36.40;42.00
68354;DHT22;55274;43.060;25.618;2023-07-20T13:32:03;36.60;41.40
68354;DHT22;55274;43.060;25.618;2023-07-20T13:34:30;36.70;42.80
68354;DHT22;55274;43.060;25.618;2023-07-20T13:36:57;36.80;41.00
68354;DHT22;55274;43.060;25.618;2023-07-20T13:39:22;36.70;40.20
68354;DHT22;55274;43.060;25.618;2023-07-20T13:41:49;36.60;40.00
68354;DHT22;55274;43.060;25.618;2023-07-20T13:44:15;36.60;40.80
68354;DHT22;55274;43.060;25.618;2023-07-20T13:46:41;36.50;40.00
68354;DHT22;55274;43.060;25.618;2023-07-20T13:49:07;36.60;40.40
68354;DHT22;55274;43.060;25.618;2023-07-20T13:51:32;36.40;40.40
68354;DHT22;55274;43.060;25.618;2023-07-20T13:53:58;36.30;40.60
68354;DHT22;55274;43.060;25.618;2023-07-20T13:56:24;36.30;40.60
68354;DHT22;55274;43.060;25.618;2023-07-20T13:58:50;36.40;40.50
68354;DHT22;55274;43.060;25.618;2023-07-20T14:01:16;36.60;40.00
68354;DHT22;55274;43.060;25.618;2023-07-20T14:03:43;36.80;40.10
68354;DHT22;55274;43.060;25.618;2023-07-20T14:06:09;36.90;39.50
68354;DHT22;55274;43.060;25.618;2023-07-20T14:08:35;37.10;39.90
68354;DHT22;55274;43.060;25.618;2023-07-20T14:11:00;37.10;39.40
68354;DHT22;55274;43.060;25.618;2023-07-20T14:13:27;36.90;38.70
68354;DHT22;55274;43.060;25.618;2023-07-20T14:15:52;36.80;39.30
68354;DHT22;55274;43.060;25.618;2023-07-20T14:18:18;36.80;39.20
68354;DHT22;55274;43.060;25.618;2023-07-20T14:20:44;36.60;39.50
68354;DHT22;55274;43.060;25.618;2023-07-20T14:23:10;36.50;39.80
68354;DHT22;55274;43.060;25.618;2023-07-20T14:25:35;36.50;40.20
68354;DHT22;55274;43.060;25.618;2023-07-20T14:28:01;36.30;41.00
68354;DHT22;55274;43.060;25.618;2023-07-20T14:30:27;36.30;41.20
68354;DHT22;55274;43.060;25.618;2023-07-20T14:32:53;36.10;41.90
68354;DHT22;55274;43.060;25.618;2023-07-20T14:35:19;36.30;40.80
68354;DHT22;55274;43.060;25.618;2023-07-20T14:37:45;36.20;41.10
68354;DHT22;55274;43.060;25.618;2023-07-20T14:40:13;36.10;42.30
68354;DHT22;55274;43.060;25.618;2023-07-20T14:42:39;36.20;43.00
68354;DHT22;55274;43.060;25.618;2023-07-20T14:45:05;36.00;42.30
68354;DHT22;55274;43.060;25.618;2023-07-20T14:47:31;35.90;41.70
68354;DHT22;55274;43.060;25.618;2023-07-20T14:50:01;35.90;41.70
68354;DHT22;55274;43.060;25.618;2023-07-20T14:52:28;35.80;41.90
68354;DHT22;55274;43.060;25.618;2023-07-20T14:54:54;35.80;43.40
68354;DHT22;55274;43.060;25.618;2023-07-20T14:57:20;35.80;42.70
68354;DHT22;55274;43.060;25.618;2023-07-20T14:59:49;35.70;42.70
68354;DHT22;55274;43.060;25.618;2023-07-20T15:02:15;35.80;43.10
68354;DHT22;55274;43.060;25.618;2023-07-20T15:04:51;35.70;43.40
68354;DHT22;55274;43.060;25.618;2023-07-20T15:07:18;35.50;43.90
68354;DHT22;55274;43.060;25.618;2023-07-20T15:09:45;35.40;45.40
68354;DHT22;55274;43.060;25.618;2023-07-20T15:12:11;35.30;46.50
68354;DHT22;55274;43.060;25.618;2023-07-20T15:14:40;35.10;46.20
68354;DHT22;55274;43.060;25.618;2023-07-20T15:17:10;35.10;46.40
68354;DHT22;55274;43.060;25.618;2023-07-20T15:19:36;35.10;46.50
68354;DHT22;55274;43.060;25.618;2023-07-20T15:22:03;35.00;46.80
68354;DHT22;55274;43.060;25.618;2023-07-20T15:24:30;35.10;46.40
68354;DHT22;55274;43.060;25.618;2023-07-20T15:26:56;35.10;45.10
68354;DHT22;55274;43.060;25.618;2023-07-20T15:29:23;35.10;46.10
68354;DHT22;55274;43.060;25.618;2023-07-20T15:31:49;35.10;45.40